North Chicago, IL

8:12 PM CDT on August 29, 2014 (GMT -0500)
Chicago-O'Hare International | Change Station
CLOSE
Current Station
Airport
Location: Chicago,
Elevation: 673 ft
Nearby Weather Stations

Elev 673 ft 41.99 °N, 87.93 °W | Updated 21 minutes ago

Mostly Cloudy
Mostly Cloudy
80 °F
Feels Like 83 °F
N
10
Wind Variable Wind from SSE

Today
High -- | Low -- °F
--% Chance of Precip.
Yesterday
High -- | Low -- °F
Precip. -- in
6:13 AM 7:30 PM
Waxing Crescent, 18% visible
Pressure 29.87 in
Visibility 10.0 miles
Clouds Few 2600 ft
Few 8000 ft
Scattered Clouds 19000 ft
Mostly Cloudy 25000 ft
Heat Index 83 °F
Dew Point 68 °F
Humidity 67%
Rainfall 0.00 in
Snow Depth Not available.
UV 0 out of 12
Pollen 4.40 out of 12
Ozone Good
PM2.5 Moderate
Flu Activity Not available.
METAR KORD 300051Z 16009KT 10SM FEW026 FEW080 SCT190 BKN250 27/20 A2988 RMK AO2 SLP114 T02670200

More Conditions Fewer Conditions

Pressure 29.87 in
Visibility 10.0 miles
Clouds Few 2600 ft
Few 8000 ft
Scattered Clouds 19000 ft
Mostly Cloudy 25000 ft
Heat Index 83 °F
Dew Point 68 °F
Humidity 67%
Rainfall 0.00 in
Snow Depth Not available.
UV 0 out of 12
Pollen 4.40 out of 12
Ozone Good
PM2.5 Moderate
Flu Activity Not available.
METAR KORD 300051Z 16009KT 10SM FEW026 FEW080 SCT190 BKN250 27/20 A2988 RMK AO2 SLP114 T02670200

More Conditions Fewer Conditions

10-Day Weather Forecast

Almanac

Astronomy

Aug. 29, 2014 Rise Set
Actual Time 6:13 AM CDT 7:30 PM CDT
Civil Twilight 5:44 AM CDT 7:59 PM CDT
Nautical Twilight 5:09 AM CDT 8:34 PM CDT
Astronomical Twilight 4:32 AM CDT 9:10 PM CDT
Moon 10:07 AM CDT (8/29) 9:22 PM CDT (8/29)
Length of Visible Light 14h 14m
Length of Day
13h 16m
Tomorrow will be 2m 42s shorter.
Waxing Crescent, 18% of the Moon is Illuminated
Today
Waxing Crescent
Sep 2
First Quarter
Sep 8
Full
Sep 15
Last Quarter
Sep 24
New

Today's Extremes

State Highs State Lows

Community

WunderPhotos

Upload Photos

1,748,395 photos uploaded!

Nearby

Air Quality

  Air Quality AQ Index Pollutant
Yesterday Good
PM2.5
Yesterday Good
OZONE
Current Moderate
PM2.5
Current Good
OZONE
Friday Moderate
PM2.5
Friday Good
OZONE
Saturday Moderate
PM2.5
Saturday Good
OZONE
Sunday Moderate
OZONE
Sunday Good
PM2.5
Monday Moderate
PM2.5
Monday Good
OZONE
Tuesday Good
OZONE
Tuesday Good
PM2.5

Snow Depth

Station Depth Elevation
No new snow has been reported.

Earthquake Activity

City Distance Mag. Time & Date
No recent earthquake activity has been reported nearby.
Minimum magnitude displayed is 2.5.

Coastal Water Temperatures

Place Temperature
No Stations Reporting

Nearby Weather Stations